ETSL

Lechfeld Airport

Germany
METAR ETSL 250020Z 16003KT 9999 MIFG FEW080 10/10 Q1019 BLU+
Observed Flight Rules
May-25 @ 00:20 UTC (41 minutes ago) Visual Flight Rules
Wind Visibility Clouds Conditions
160° at 3 knots 10,000+ meters
  • Few at 8,000' AGL
  • Shallow
  • Fog
Temperatures Readings
Current 10°C / 50°F
Dewpoint 10°C / 50°F
Humidity 100%
Altimeter 30.09" Hg
Pressure 1019 hPa
Elevation 562
METAR ETSL 250020Z 16003KT 9999 MIFG FEW080 10/10 Q1019 BLU+
Observed Flight Rules
May-25 @ 00:20 UTC
(41 minutes ago)
VFR
Wind Visibility
160° at 3 knots 10,000+ meters
Clouds
  • Few at 8,000' AGL
Conditions
  • Shallow
  • Fog
Temperature Dewpoint
10°C / 50°F 10°C / 50°F
Humidity Altimeter Pressure
100% 30.09" Hg 1019 hPa